Time;durP1;ratioP1;P1;durP2;ratioP2;P2;SDS_P1;SDS_P2;PMS_P1;PMS_P2;Temp;Humidity;BMP_temperature;BMP_pressure;BME280_temperature;BME280_humidity;BME280_pressure;Samples;Min_cycle;Max_cycle;Signal;HPM_P1;HPM_P2
2021/03/17 00:01:39;;;;;;;9.00;4.32;;;3.70;69.00;;;;;;5091268;28;20449;-68
2021/03/17 00:04:05;;;;;;;11.73;5.90;;;3.70;69.20;;;;;;5091246;28;20057;-68
2021/03/17 00:06:30;;;;;;;;;;;3.60;69.20;;;;;;5090453;28;20028;-68
2021/03/17 00:08:56;;;;;;;9.18;5.05;;;3.60;70.20;;;;;;5090930;28;20303;-67
2021/03/17 00:11:22;;;;;;;8.27;4.22;;;3.50;69.60;;;;;;5091022;28;20059;-68
2021/03/17 00:13:47;;;;;;;12.95;5.18;;;3.50;69.90;;;;;;5090981;28;20036;-69
2021/03/17 00:16:13;;;;;;;12.07;5.55;;;3.40;70.10;;;;;;5090875;28;20434;-65
2021/03/17 00:18:38;;;;;;;;;;;3.30;70.10;;;;;;5091309;28;20036;-66
2021/03/17 00:21:04;;;;;;;6.72;3.60;;;3.20;70.30;;;;;;5090490;28;20582;-66
2021/03/17 00:23:30;;;;;;;7.07;3.95;;;3.20;70.80;;;;;;5089656;28;20028;-67
2021/03/17 00:25:55;;;;;;;;;;;3.10;70.90;;;;;;5091042;28;20039;-68
2021/03/17 00:28:21;;;;;;;6.90;3.55;;;3.00;71.10;;;;;;5090700;28;20308;-68
2021/03/17 00:30:46;;;;;;;9.18;4.90;;;3.00;71.00;;;;;;5090641;28;20048;-67
2021/03/17 00:33:13;;;;;;;;;;;2.90;70.90;;;;;;5090803;28;20053;-67
2021/03/17 00:35:39;;;;;;;5.65;3.40;;;2.80;71.20;;;;;;5090522;28;19911;-67
2021/03/17 00:38:05;;;;;;;8.38;4.55;;;2.80;71.20;;;;;;5090407;28;20036;-67
2021/03/17 00:40:32;;;;;;;10.20;5.93;;;2.70;71.30;;;;;;5090202;28;20047;-68
2021/03/17 00:42:58;;;;;;;11.32;6.18;;;2.60;71.60;;;;;;5090216;28;20028;-67
2021/03/17 00:45:24;;;;;;;;;;;2.50;71.70;;;;;;5090794;28;20104;-67
2021/03/17 00:47:49;;;;;;;12.00;6.28;;;2.40;72.00;;;;;;5083474;28;19904;-66
2021/03/17 00:50:16;;;;;;;;;;;2.40;71.90;;;;;;5090705;28;20504;-67
2021/03/17 00:52:42;;;;;;;13.83;7.20;;;2.30;72.20;;;;;;5088914;28;20649;-68
2021/03/17 00:55:08;;;;;;;;;;;2.10;72.70;;;;;;5089146;28;20314;-67
2021/03/17 00:57:34;;;;;;;15.98;8.75;;;2.00;73.10;;;;;;5090019;28;20408;-67
2021/03/17 00:59:59;;;;;;;;;;;1.90;73.20;;;;;;5090552;28;20096;-68
2021/03/17 01:02:25;;;;;;;20.25;9.68;;;1.80;73.30;;;;;;5089339;28;19908;-67
2021/03/17 01:04:50;;;;;;;19.88;10.05;;;1.70;73.20;;;;;;5089652;28;20503;-67
2021/03/17 01:07:17;;;;;;;17.10;9.07;;;1.60;73.30;;;;;;5089574;28;20032;-67
2021/03/17 01:09:43;;;;;;;19.90;10.23;;;1.60;74.00;;;;;;5089796;28;20039;-68
2021/03/17 01:12:10;;;;;;;21.48;10.75;;;1.50;74.20;;;;;;5089650;28;20779;-67
2021/03/17 01:14:36;;;;;;;16.88;9.65;;;1.50;74.30;;;;;;5089688;28;20511;-67
2021/03/17 01:17:03;;;;;;;20.67;10.40;;;1.40;74.40;;;;;;5089540;28;20428;-67
2021/03/17 01:19:29;;;;;;;20.83;10.88;;;1.40;74.50;;;;;;5089495;28;20051;-67
2021/03/17 01:21:54;;;;;;;;;;;1.30;74.80;;;;;;5089803;28;20029;-67
2021/03/17 01:24:20;;;;;;;18.20;9.57;;;1.20;74.70;;;;;;5089634;28;20293;-68
2021/03/17 01:26:45;;;;;;;;;;;1.20;75.00;;;;;;5088567;28;20024;-68
2021/03/17 01:29:11;;;;;;;26.08;11.73;;;1.10;75.00;;;;;;5088262;28;19904;-68
2021/03/17 01:31:36;;;;;;;;;;;1.00;75.20;;;;;;5088528;28;20074;-68
2021/03/17 01:34:02;;;;;;;22.30;11.38;;;1.00;75.60;;;;;;5089415;28;19939;-68
2021/03/17 01:36:28;;;;;;;;;;;0.90;76.30;;;;;;5089872;28;20400;-68
2021/03/17 01:38:53;;;;;;;18.35;7.88;;;0.90;76.80;;;;;;5089174;28;19904;-68
2021/03/17 01:41:19;;;;;;;;;;;0.90;76.60;;;;;;5089715;28;20028;-68
2021/03/17 01:43:45;;;;;;;12.50;6.65;;;0.90;76.60;;;;;;5089216;28;19904;-68
2021/03/17 01:46:10;;;;;;;;;;;0.80;76.60;;;;;;5089783;28;20543;-69
2021/03/17 01:48:36;;;;;;;11.43;6.47;;;0.80;76.90;;;;;;5089039;28;20393;-68
2021/03/17 01:51:01;;;;;;;;;;;0.80;76.90;;;;;;5089497;28;20028;-68
2021/03/17 01:53:33;;;;;;;19.88;8.85;;;0.70;76.70;;;;;;5089027;28;20170;-67
2021/03/17 01:55:59;;;;;;;18.05;9.43;;;0.70;77.30;;;;;;5089109;28;20020;-68
2021/03/17 01:58:25;;;;;;;;;;;0.70;77.20;;;;;;5088128;28;20355;-67
2021/03/17 02:00:52;;;;;;;20.70;8.57;;;0.70;77.20;;;;;;5088888;28;19912;-67
2021/03/17 02:03:18;;;;;;;20.15;9.80;;;0.60;77.40;;;;;;5088821;28;20441;-68
2021/03/17 02:05:46;;;;;;;18.55;9.35;;;0.60;77.60;;;;;;5089064;28;20032;-67
2021/03/17 02:08:22;;;;;;;17.13;8.60;;;0.60;77.60;;;;;;5087297;28;20028;-67
2021/03/17 02:10:48;;;;;;;15.98;7.80;;;0.60;77.70;;;;;;5088703;28;20235;-66
2021/03/17 02:13:13;;;;;;;;;;;0.60;77.80;;;;;;5088944;28;20028;-67
2021/03/17 02:15:57;;;;;;;14.70;7.90;;;0.60;77.90;;;;;;5088419;28;20041;-68
2021/03/17 02:18:42;;;;;;;16.92;9.20;;;0.60;77.60;;;;;;5088678;28;20056;-68
2021/03/17 02:21:17;;;;;;;18.00;8.77;;;0.60;77.60;;;;;;5088492;28;20362;-68
2021/03/17 02:24:06;;;;;;;15.38;8.40;;;0.50;77.50;;;;;;5087331;28;20020;-67
2021/03/17 02:27:10;;;;;;;20.65;8.18;;;0.60;77.60;;;;;;5088552;28;20032;-67
2021/03/17 02:30:33;;;;;;;18.35;8.27;;;0.60;77.90;;;;;;5088537;28;20024;-67
2021/03/17 02:33:17;;;;;;;16.48;7.97;;;0.60;78.20;;;;;;4989488;28;20060;-67
2021/03/17 02:35:47;;;;;;;12.63;7.13;;;0.60;78.40;;;;;;4989619;28;20041;-68
2021/03/17 02:38:15;;;;;;;16.27;7.75;;;0.70;78.40;;;;;;5066907;28;20042;-68
2021/03/17 02:40:43;;;;;;;14.95;7.25;;;0.70;78.50;;;;;;5088123;28;20075;-67
2021/03/17 02:43:22;;;;;;;12.13;6.20;;;0.80;78.50;;;;;;5088221;28;20031;-68
2021/03/17 02:45:58;;;;;;;10.93;5.93;;;0.80;78.10;;;;;;5088363;28;20088;-68
2021/03/17 02:48:28;;;;;;;13.48;6.57;;;0.90;77.80;;;;;;5088416;28;20031;-68
2021/03/17 02:50:56;;;;;;;14.13;6.40;;;1.00;77.30;;;;;;5088295;28;20032;-68
2021/03/17 02:53:25;;;;;;;12.57;6.75;;;1.00;77.00;;;;;;5088350;28;20028;-68
2021/03/17 02:55:57;;;;;;;12.90;5.97;;;1.10;76.80;;;;;;5088178;28;20060;-68
2021/03/17 02:58:24;;;;;;;10.88;6.00;;;1.10;76.60;;;;;;5087061;28;20461;-68
2021/03/17 03:00:50;;;;;;;10.23;5.55;;;1.20;76.60;;;;;;5088070;28;20040;-68
2021/03/17 03:03:18;;;;;;;8.73;5.28;;;1.20;76.50;;;;;;5088026;28;20088;-68
2021/03/17 03:05:45;;;;;;;9.60;5.10;;;1.30;76.30;;;;;;5088304;28;20020;-68
2021/03/17 03:08:10;;;;;;;8.80;4.60;;;1.40;75.90;;;;;;5088161;28;20074;-67
2021/03/17 03:10:37;;;;;;;;;;;1.50;75.70;;;;;;5088599;28;20429;-69
2021/03/17 03:13:04;;;;;;;9.15;4.85;;;1.50;75.50;;;;;;5088110;28;19908;-68
2021/03/17 03:15:31;;;;;;;11.45;5.15;;;1.60;75.30;;;;;;5088081;28;20044;-68
2021/03/17 03:18:03;;;;;;;9.00;4.65;;;1.80;76.00;;;;;;5088041;28;20020;-68
2021/03/17 03:20:31;;;;;;;6.10;3.35;;;2.10;75.40;;;;;;5087892;28;20116;-68
2021/03/17 03:22:57;;;;;;;9.27;4.72;;;2.50;74.30;;;;;;5087796;28;20032;-68
2021/03/17 03:25:25;;;;;;;8.38;4.10;;;2.90;72.60;;;;;;5087950;28;20066;-68
2021/03/17 03:27:53;;;;;;;6.70;3.78;;;3.20;71.30;;;;;;5091462;28;20073;-68
2021/03/17 03:30:27;;;;;;;6.07;4.00;;;3.50;69.80;;;;;;5091744;28;20056;-68
2021/03/17 03:32:54;;;;;;;6.68;3.72;;;3.60;69.00;;;;;;5091792;28;20027;-68
2021/03/17 03:35:22;;;;;;;6.05;3.72;;;3.70;68.60;;;;;;5091631;28;20036;-67
2021/03/17 03:37:48;;;;;;;7.45;3.97;;;3.80;68.60;;;;;;5091658;28;20391;-68
2021/03/17 03:40:15;;;;;;;;;;;3.90;67.50;;;;;;5091910;28;20511;-68
2021/03/17 03:42:41;;;;;;;10.43;4.47;;;3.90;67.50;;;;;;5091483;28;19961;-68
2021/03/17 03:45:10;;;;;;;11.82;5.57;;;3.80;67.30;;;;;;5091336;28;20043;-68
2021/03/17 03:47:36;;;;;;;9.27;5.35;;;3.80;67.30;;;;;;5091451;28;20024;-67
2021/03/17 03:50:03;;;;;;;;;;;3.70;67.40;;;;;;5091850;28;20032;-68
2021/03/17 03:52:35;;;;;;;8.18;4.63;;;3.60;67.70;;;;;;5091281;28;19962;-68
2021/03/17 03:55:12;;;;;;;12.02;4.55;;;3.50;68.20;;;;;;5091186;28;20421;-68
2021/03/17 03:57:46;;;;;;;6.35;3.97;;;3.20;69.00;;;;;;5091289;28;20028;-68
2021/03/17 04:00:13;;;;;;;9.45;5.03;;;3.00;69.70;;;;;;5091194;28;20594;-68
2021/03/17 04:02:44;;;;;;;8.30;4.60;;;2.80;70.60;;;;;;5091131;28;20076;-68
2021/03/17 04:05:12;;;;;;;7.57;4.18;;;2.70;71.10;;;;;;5091041;28;20020;-68
2021/03/17 04:07:42;;;;;;;7.53;4.30;;;2.50;71.60;;;;;;5091097;28;20103;-68
2021/03/17 04:10:10;;;;;;;10.20;4.88;;;2.50;72.10;;;;;;5090984;28;20035;-68
2021/03/17 04:12:41;;;;;;;10.32;5.03;;;2.40;72.40;;;;;;5090820;28;20024;-68
2021/03/17 04:15:08;;;;;;;7.90;4.72;;;2.40;72.70;;;;;;5089499;28;20042;-68
2021/03/17 04:17:36;;;;;;;9.05;4.90;;;2.40;72.90;;;;;;5091123;28;20464;-68
2021/03/17 04:20:11;;;;;;;7.30;3.95;;;2.30;73.20;;;;;;5090761;28;20043;-68
2021/03/17 04:22:38;;;;;;;9.38;4.78;;;2.30;73.30;;;;;;5090679;28;20020;-69
2021/03/17 04:25:07;;;;;;;9.57;5.05;;;2.20;73.40;;;;;;5090618;28;20032;-69
2021/03/17 04:27:34;;;;;;;11.55;5.75;;;2.20;73.40;;;;;;5090723;28;20508;-68
2021/03/17 04:30:03;;;;;;;13.40;7.57;;;2.20;73.60;;;;;;5089525;28;20422;-68
2021/03/17 04:32:29;;;;;;;10.63;6.90;;;2.20;73.50;;;;;;5083607;28;20039;-68
2021/03/17 04:34:56;;;;;;;14.10;7.25;;;2.20;73.70;;;;;;5071170;28;20024;-67
2021/03/17 04:37:22;;;;;;;11.25;7.03;;;2.10;73.70;;;;;;5070152;28;20154;-68
2021/03/17 04:39:49;;;;;;;;;;;2.10;74.00;;;;;;5070613;28;20091;-68
2021/03/17 04:42:15;;;;;;;9.75;5.32;;;2.00;74.00;;;;;;5070240;28;19912;-68
2021/03/17 04:44:41;;;;;;;;;;;2.00;74.30;;;;;;5070750;28;20090;-67
2021/03/17 04:47:10;;;;;;;16.55;6.82;;;1.90;74.40;;;;;;5069781;28;19904;-67
2021/03/17 04:49:36;;;;;;;35.08;13.23;;;1.90;74.30;;;;;;5069981;28;20068;-68
2021/03/17 04:52:03;;;;;;;;;;;1.80;75.00;;;;;;5070406;28;20111;-68
2021/03/17 04:54:28;;;;;;;76.55;31.40;;;1.90;75.20;;;;;;5069942;28;19951;-66
2021/03/17 04:56:54;;;;;;;;;;;1.80;75.00;;;;;;5070429;28;20056;-68
2021/03/17 04:59:22;;;;;;;24.65;8.23;;;1.80;75.10;;;;;;5069704;28;19912;-68
2021/03/17 05:01:48;;;;;;;13.90;7.40;;;1.90;74.70;;;;;;5069701;28;20029;-68
2021/03/17 05:04:14;;;;;;;;;;;1.90;74.60;;;;;;5070109;28;20650;-68
2021/03/17 05:06:45;;;;;;;13.05;6.68;;;1.90;74.70;;;;;;5068339;28;19999;-67
2021/03/17 05:09:12;;;;;;;16.85;7.88;;;1.90;74.70;;;;;;5069594;28;20400;-68
2021/03/17 05:11:39;;;;;;;17.00;8.05;;;2.00;74.60;;;;;;5068189;28;20028;-67
2021/03/17 05:14:06;;;;;;;14.82;8.73;;;1.90;74.50;;;;;;5069458;28;20032;-67
2021/03/17 05:16:32;;;;;;;15.55;7.35;;;2.00;74.60;;;;;;5068363;28;20102;-68
2021/03/17 05:19:00;;;;;;;14.40;6.85;;;1.90;74.70;;;;;;5069233;28;20029;-67
2021/03/17 05:21:27;;;;;;;15.73;8.00;;;1.90;74.70;;;;;;5068085;28;20035;-67
2021/03/17 05:23:53;;;;;;;10.18;6.00;;;2.00;74.90;;;;;;5068403;28;20035;-67
2021/03/17 05:26:18;;;;;;;;;;;2.10;74.90;;;;;;5069744;28;20048;-67
2021/03/17 05:28:45;;;;;;;9.25;5.72;;;2.10;75.10;;;;;;5069475;28;20276;-67
2021/03/17 05:31:11;;;;;;;8.13;4.93;;;2.20;74.90;;;;;;5069198;28;20039;-67
2021/03/17 05:33:36;;;;;;;;;;;2.40;74.70;;;;;;5069641;28;20036;-68
2021/03/17 05:36:03;;;;;;;7.82;4.40;;;2.50;74.30;;;;;;5069081;28;19904;-67
2021/03/17 05:38:29;;;;;;;8.90;4.85;;;2.70;73.90;;;;;;5069010;28;20067;-67
2021/03/17 05:40:55;;;;;;;;;;;2.80;73.40;;;;;;5069180;28;20083;-68
2021/03/17 05:43:22;;;;;;;9.50;4.97;;;3.10;72.80;;;;;;5068982;28;20053;-68
2021/03/17 05:45:48;;;;;;;10.63;4.97;;;3.20;72.10;;;;;;5067587;28;20408;-68
2021/03/17 05:48:16;;;;;;;12.50;4.53;;;3.40;71.80;;;;;;5068680;28;20032;-68
2021/03/17 05:50:42;;;;;;;10.27;4.88;;;3.50;71.50;;;;;;5068402;28;20503;-68
2021/03/17 05:53:09;;;;;;;6.28;4.10;;;3.70;71.00;;;;;;5068612;28;20025;-68
2021/03/17 05:55:36;;;;;;;10.30;4.65;;;3.90;71.00;;;;;;5068893;28;20028;-68
2021/03/17 05:58:03;;;;;;;10.40;4.47;;;4.20;69.40;;;;;;5068701;28;20035;-68
2021/03/17 06:00:29;;;;;;;9.70;4.93;;;4.40;68.70;;;;;;5068541;28;20144;-67
2021/03/17 06:02:54;;;;;;;;;;;4.50;67.70;;;;;;5069026;28;20111;-68
2021/03/17 06:05:22;;;;;;;7.88;4.13;;;4.60;67.40;;;;;;5068498;28;19908;-68
2021/03/17 06:07:51;;;;;;;9.48;4.40;;;4.80;66.80;;;;;;5068512;28;20020;-68
2021/03/17 06:10:20;;;;;;;8.27;4.50;;;5.00;65.90;;;;;;5066469;28;20060;-67
2021/03/17 06:12:51;;;;;;;7.72;4.53;;;5.30;65.00;;;;;;5068486;28;20392;-68
2021/03/17 06:15:22;;;;;;;8.82;4.63;;;5.40;64.30;;;;;;5067116;28;20128;-67
2021/03/17 06:18:18;;;;;;;7.30;3.28;;;5.60;64.20;;;;;;5068518;28;20052;-67
2021/03/17 06:20:45;;;;;;;9.90;4.70;;;6.10;63.40;;;;;;5068383;28;20094;-68
2021/03/17 06:23:11;;;;;;;8.10;4.55;;;6.30;62.60;;;;;;5068278;28;20021;-68
2021/03/17 06:25:38;;;;;;;9.77;4.65;;;6.70;61.80;;;;;;5068449;28;20162;-67
2021/03/17 06:28:05;;;;;;;15.30;5.03;;;6.90;60.90;;;;;;5068408;28;20054;-69
2021/03/17 06:30:31;;;;;;;8.10;4.97;;;7.10;60.10;;;;;;5068268;28;20028;-68
2021/03/17 06:32:57;;;;;;;;;;;7.20;59.80;;;;;;5068565;28;20472;-69
2021/03/17 06:35:24;;;;;;;9.25;3.80;;;7.20;59.10;;;;;;5068109;28;19986;-68
2021/03/17 06:37:50;;;;;;;7.35;3.75;;;7.20;58.50;;;;;;5068210;28;20027;-68
2021/03/17 06:40:19;;;;;;;9.15;4.28;;;7.10;58.10;;;;;;5068027;28;20044;-68
2021/03/17 06:42:44;;;;;;;8.15;4.25;;;7.00;58.00;;;;;;5066811;28;20101;-67
2021/03/17 06:45:11;;;;;;;7.63;4.03;;;7.10;58.00;;;;;;5066818;28;20451;-67
2021/03/17 06:47:36;;;;;;;7.57;4.25;;;6.90;58.10;;;;;;5068049;28;20382;-68
2021/03/17 06:50:08;;;;;;;12.65;4.93;;;6.90;58.00;;;;;;5068184;28;20515;-68
2021/03/17 06:52:40;;;;;;;8.43;4.32;;;6.80;58.20;;;;;;5067998;28;20028;-68
2021/03/17 06:55:12;;;;;;;9.77;3.92;;;6.80;58.40;;;;;;5067926;28;20028;-67
2021/03/17 06:57:52;;;;;;;7.00;4.13;;;6.80;58.60;;;;;;5066910;28;20025;-68
2021/03/17 07:00:17;;;;;;;8.15;3.95;;;6.80;59.00;;;;;;5068018;28;20503;-68
2021/03/17 07:03:03;;;;;;;7.38;3.95;;;6.90;58.90;;;;;;5071135;28;20025;-68
2021/03/17 07:05:34;;;;;;;7.90;4.35;;;7.20;58.60;;;;;;5087993;28;20115;-68
2021/03/17 07:08:01;;;;;;;7.38;4.80;;;7.50;57.40;;;;;;5090854;28;20504;-68
2021/03/17 07:10:30;;;;;;;6.55;4.13;;;7.80;55.70;;;;;;5092117;28;20441;-67
2021/03/17 07:12:57;;;;;;;8.85;4.03;;;8.10;55.60;;;;;;5092039;28;20020;-65
2021/03/17 07:15:23;;;;;;;7.05;3.70;;;8.50;54.50;;;;;;5090837;28;20059;-67
2021/03/17 07:17:50;;;;;;;9.05;4.38;;;8.50;53.60;;;;;;5092069;28;20399;-68
2021/03/17 07:20:35;;;;;;;5.45;3.13;;;8.60;52.70;;;;;;5092031;28;20036;-68
2021/03/17 07:23:21;;;;;;;5.70;4.03;;;8.50;52.30;;;;;;5090492;28;20085;-68
2021/03/17 07:26:04;;;;;;;6.78;4.10;;;8.50;52.80;;;;;;5091896;28;20048;-68
2021/03/17 07:28:51;;;;;;;8.52;4.15;;;8.30;52.40;;;;;;5091803;28;20139;-69
2021/03/17 07:31:18;;;;;;;8.30;4.53;;;8.30;50.80;;;;;;5090121;28;20017;-68
2021/03/17 07:33:44;;;;;;;8.05;5.20;;;8.20;49.60;;;;;;5090412;28;20063;-67
2021/03/17 07:36:11;;;;;;;8.38;4.95;;;8.10;49.60;;;;;;5091765;28;20028;-68
2021/03/17 07:38:37;;;;;;;7.78;4.40;;;8.20;49.90;;;;;;5088427;28;20032;-67
2021/03/17 07:41:03;;;;;;;;;;;8.30;48.90;;;;;;5088760;28;20048;-68
2021/03/17 07:43:31;;;;;;;6.97;4.35;;;8.40;48.90;;;;;;5091621;28;20421;-68
2021/03/17 07:45:59;;;;;;;8.30;5.03;;;8.50;49.00;;;;;;5091509;28;20063;-67
2021/03/17 07:48:26;;;;;;;8.52;4.90;;;8.60;47.70;;;;;;5091656;28;20040;-67
2021/03/17 07:50:53;;;;;;;10.20;5.80;;;8.60;47.90;;;;;;5091552;28;20031;-68
2021/03/17 07:53:25;;;;;;;8.25;4.38;;;8.60;47.40;;;;;;5091405;28;20164;-68
2021/03/17 07:55:56;;;;;;;9.23;4.78;;;8.50;47.40;;;;;;5091165;28;20035;-67
2021/03/17 07:58:22;;;;;;;8.85;5.30;;;8.50;48.00;;;;;;5091157;28;20021;-68
2021/03/17 08:00:48;;;;;;;;;;;8.40;47.80;;;;;;5086019;28;20648;-68
2021/03/17 08:03:15;;;;;;;10.45;4.13;;;8.20;48.10;;;;;;5089172;28;19946;-67
2021/03/17 08:05:41;;;;;;;7.80;4.38;;;8.20;48.20;;;;;;5090938;28;20036;-68
2021/03/17 08:08:08;;;;;;;8.45;5.32;;;8.30;48.30;;;;;;5089701;28;20035;-68
2021/03/17 08:10:42;;;;;;;9.73;4.82;;;8.30;47.70;;;;;;5091043;28;20173;-67
2021/03/17 08:13:09;;;;;;;17.15;7.72;;;8.30;48.10;;;;;;5077694;28;20020;-66
2021/03/17 08:15:36;;;;;;;13.30;6.93;;;8.30;48.60;;;;;;5075587;28;20068;-68
2021/03/17 08:18:09;;;;;;;11.20;7.15;;;8.40;49.30;;;;;;5077393;28;20476;-68
2021/03/17 08:20:35;;;;;;;8.95;5.57;;;8.50;48.40;;;;;;5088879;28;20032;-67
2021/03/17 08:23:00;;;;;;;;;;;8.60;48.00;;;;;;5088845;28;20028;-67
2021/03/17 08:25:42;;;;;;;6.78;3.60;;;8.70;47.40;;;;;;5090873;28;19903;-67
2021/03/17 08:28:27;;;;;;;9.50;4.60;;;9.00;46.90;;;;;;5090767;28;20123;-68
2021/03/17 08:30:58;;;;;;;7.55;4.05;;;9.40;48.40;;;;;;5090643;28;20111;-68
2021/03/17 08:33:50;;;;;;;6.40;3.95;;;9.70;48.40;;;;;;5089402;28;20065;-68
2021/03/17 08:36:16;;;;;;;7.25;4.25;;;9.90;47.70;;;;;;5086863;28;20036;-68
2021/03/17 08:38:46;;;;;;;;;;;10.10;47.10;;;;;;5079825;28;20116;-68
2021/03/17 08:41:12;;;;;;;9.45;5.00;;;10.20;44.50;;;;;;5079772;28;20594;-69
2021/03/17 08:43:44;;;;;;;;;;;10.70;45.20;;;;;;5084231;28;20020;-68
2021/03/17 08:46:18;;;;;;;8.43;4.88;;;11.50;42.80;;;;;;5072608;28;19908;-68
2021/03/17 08:49:06;;;;;;;7.90;4.65;;;12.30;38.90;;;;;;5070180;28;20027;-68
2021/03/17 08:51:47;;;;;;;9.82;5.30;;;12.80;37.10;;;;;;5070018;28;20621;-69
2021/03/17 08:54:31;;;;;;;7.88;4.85;;;12.80;36.60;;;;;;5069979;28;20021;-68
2021/03/17 08:56:58;;;;;;;7.68;3.78;;;12.60;36.90;;;;;;5069919;28;20145;-67
2021/03/17 08:59:38;;;;;;;6.38;3.67;;;12.40;37.70;;;;;;5069874;28;20174;-68
2021/03/17 09:02:04;;;;;;;8.65;4.68;;;12.10;37.50;;;;;;5069847;28;20761;-68
2021/03/17 09:04:50;;;;;;;;;;;11.80;38.10;;;;;;5070412;28;20025;-67
2021/03/17 09:07:37;;;;;;;7.00;4.45;;;11.50;37.60;;;;;;5067812;28;19905;-68
2021/03/17 09:10:14;;;;;;;9.32;5.80;;;11.00;37.90;;;;;;5069137;28;20505;-68
2021/03/17 09:12:39;;;;;;;6.88;4.35;;;10.80;39.20;;;;;;5069672;28;20033;-67
2021/03/17 09:15:14;;;;;;;;;;;10.70;38.60;;;;;;5077781;28;20040;-68
2021/03/17 09:17:56;;;;;;;7.65;4.53;;;10.60;39.00;;;;;;5078529;28;19908;-68
2021/03/17 09:20:47;;;;;;;8.27;4.95;;;10.60;39.80;;;;;;5078781;28;20024;-68
2021/03/17 09:23:21;;;;;;;9.63;6.05;;;10.70;38.10;;;;;;5077518;28;20103;-67
2021/03/17 09:26:06;;;;;;;10.10;4.63;;;10.60;37.80;;;;;;5077670;28;20472;-68
2021/03/17 09:28:37;;;;;;;7.88;4.70;;;10.30;38.80;;;;;;5083212;28;20115;-67
2021/03/17 09:31:05;;;;;;;8.65;4.93;;;10.10;39.20;;;;;;5089306;28;20020;-67
2021/03/17 09:33:35;;;;;;;6.97;4.90;;;10.00;38.50;;;;;;5089530;28;20110;-68
2021/03/17 09:36:06;;;;;;;9.52;5.25;;;9.70;39.10;;;;;;5087937;28;20032;-68
2021/03/17 09:38:35;;;;;;;8.57;5.43;;;9.50;40.00;;;;;;5081998;28;20028;-67
2021/03/17 09:41:10;;;;;;;14.63;6.45;;;9.50;40.40;;;;;;5088937;28;20058;-68
2021/03/17 09:43:45;;;;;;;12.52;5.45;;;9.60;40.40;;;;;;5087927;28;20048;-68
2021/03/17 09:46:31;;;;;;;9.43;5.32;;;9.80;40.10;;;;;;5089166;28;20024;-68
2021/03/17 09:49:09;;;;;;;9.73;5.23;;;10.60;40.90;;;;;;5088624;28;20116;-67
2021/03/17 09:51:40;;;;;;;41.50;19.40;;;11.90;38.20;;;;;;5089039;28;20106;-68
2021/03/17 09:54:10;;;;;;;9.85;5.88;;;12.90;36.20;;;;;;5088984;28;20028;-67
2021/03/17 09:56:40;;;;;;;8.80;6.07;;;12.90;34.20;;;;;;5087601;28;20400;-67
2021/03/17 09:59:28;;;;;;;10.50;5.85;;;12.90;34.70;;;;;;5088787;28;20399;-67
2021/03/17 10:02:09;;;;;;;9.50;5.80;;;13.00;32.80;;;;;;5088886;28;20044;-67
2021/03/17 10:04:43;;;;;;;9.45;5.10;;;12.50;33.80;;;;;;5088920;28;20369;-68
2021/03/17 10:07:14;;;;;;;9.05;5.80;;;12.50;32.60;;;;;;5088494;28;20056;-68
2021/03/17 10:09:41;;;;;;;11.00;4.82;;;12.60;32.80;;;;;;5086711;28;20028;-68
2021/03/17 10:12:10;;;;;;;8.65;4.70;;;13.00;32.30;;;;;;5088212;28;20396;-68
2021/03/17 10:14:42;;;;;;;9.82;6.10;;;13.50;31.30;;;;;;5088644;28;20023;-67
2021/03/17 10:17:07;;;;;;;7.63;4.57;;;13.40;31.80;;;;;;5088569;28;20035;-68
2021/03/17 10:19:34;;;;;;;;;;;13.60;31.40;;;;;;5089041;28;20028;-68
2021/03/17 10:22:00;;;;;;;8.68;5.13;;;13.20;30.80;;;;;;5088484;28;19918;-67
2021/03/17 10:24:46;;;;;;;18.20;9.23;;;13.10;31.80;;;;;;5087272;28;20373;-68
2021/03/17 10:27:17;;;;;;;14.50;8.45;;;12.70;32.40;;;;;;5088313;28;20024;-67
2021/03/17 10:29:45;;;;;;;33.47;14.07;;;12.20;33.60;;;;;;5088309;28;20505;-67
2021/03/17 10:32:16;;;;;;;20.00;9.07;;;11.60;34.40;;;;;;5088494;28;20105;-67
2021/03/17 10:34:41;;;;;;;10.60;5.22;;;11.30;35.50;;;;;;5088329;28;20016;-67
2021/03/17 10:37:11;;;;;;;;;;;11.10;36.20;;;;;;5088529;28;20035;-66
2021/03/17 10:39:36;;;;;;;7.70;5.50;;;11.10;36.10;;;;;;5088091;28;20387;-67
2021/03/17 10:42:03;;;;;;;;;;;10.90;35.90;;;;;;5088774;28;20088;-67
2021/03/17 10:44:31;;;;;;;8.77;5.40;;;10.60;36.50;;;;;;5086977;28;19955;-66
2021/03/17 10:47:02;;;;;;;9.30;5.60;;;10.20;36.70;;;;;;5087637;28;20063;-68
2021/03/17 10:49:29;;;;;;;8.40;5.28;;;10.10;37.90;;;;;;5087433;28;20031;-67
2021/03/17 10:51:56;;;;;;;11.38;6.57;;;10.10;37.30;;;;;;5087646;28;20062;-66
2021/03/17 10:54:31;;;;;;;12.27;6.13;;;10.10;37.30;;;;;;5088235;28;20024;-67
2021/03/17 10:56:59;;;;;;;12.00;6.38;;;10.00;37.20;;;;;;5087694;28;20043;-67
2021/03/17 10:59:33;;;;;;;11.73;5.63;;;9.80;38.40;;;;;;5088139;28;20414;-67
2021/03/17 11:02:30;;;;;;;12.18;5.05;;;9.60;38.10;;;;;;5088173;28;20053;-66
2021/03/17 11:05:29;;;;;;;17.35;7.32;;;9.80;37.60;;;;;;5088114;28;20024;-67
2021/03/17 11:08:00;;;;;;;10.23;5.82;;;9.90;38.50;;;;;;5088085;28;20043;-68
2021/03/17 11:10:45;;;;;;;9.80;5.95;;;9.90;39.20;;;;;;5088171;28;20659;-66
2021/03/17 11:13:17;;;;;;;10.30;5.43;;;10.10;38.50;;;;;;5086418;28;20070;-66
2021/03/17 11:15:47;;;;;;;11.40;6.57;;;10.30;38.10;;;;;;5086653;28;20051;-67
2021/03/17 11:18:44;;;;;;;12.13;6.22;;;10.50;37.80;;;;;;5086692;28;20072;-67
2021/03/17 11:21:22;;;;;;;;;;;10.70;37.20;;;;;;5067157;28;20079;-67
2021/03/17 11:23:48;;;;;;;9.05;5.70;;;10.80;37.20;;;;;;5087918;28;19908;-67
2021/03/17 11:26:18;;;;;;;;;;;10.70;37.40;;;;;;5088443;28;20077;-68
2021/03/17 11:28:44;;;;;;;14.68;5.75;;;10.70;37.10;;;;;;5087914;28;19908;-67
2021/03/17 11:31:11;;;;;;;;;;;10.80;36.80;;;;;;5088030;28;20028;-67
2021/03/17 11:33:38;;;;;;;8.57;4.80;;;10.60;37.10;;;;;;5087974;28;19904;-67
2021/03/17 11:36:05;;;;;;;8.05;4.88;;;10.60;37.60;;;;;;5087781;28;20055;-67
2021/03/17 11:38:31;;;;;;;10.70;5.95;;;10.80;37.00;;;;;;5087916;28;20567;-67
2021/03/17 11:40:58;;;;;;;;;;;11.00;37.70;;;;;;5088017;28;20113;-67
2021/03/17 11:43:26;;;;;;;8.48;4.93;;;11.30;37.40;;;;;;5087938;28;19904;-67
2021/03/17 11:45:53;;;;;;;9.10;4.28;;;11.40;36.50;;;;;;5087814;28;20020;-68
2021/03/17 11:48:20;;;;;;;14.88;8.38;;;11.30;36.50;;;;;;5090401;28;20024;-67
2021/03/17 11:50:49;;;;;;;15.70;8.52;;;11.40;37.60;;;;;;5091419;28;20495;-67
2021/03/17 11:53:17;;;;;;;14.63;8.48;;;11.40;36.30;;;;;;5091314;28;20031;-67
2021/03/17 11:55:43;;;;;;;16.65;9.85;;;11.50;35.80;;;;;;5091308;28;20024;-67
2021/03/17 11:58:09;;;;;;;8.02;4.25;;;11.40;35.90;;;;;;5090059;28;20820;-67
2021/03/17 12:00:35;;;;;;;6.70;4.13;;;11.40;34.90;;;;;;5091116;28;20040;-67
2021/03/17 12:03:01;;;;;;;;;;;11.30;35.00;;;;;;5091428;28;20028;-67
2021/03/17 12:05:27;;;;;;;9.98;4.90;;;11.10;35.20;;;;;;5091283;28;19904;-67
2021/03/17 12:07:52;;;;;;;;;;;11.10;35.40;;;;;;5091566;28;20028;-67
2021/03/17 12:10:18;;;;;;;7.82;4.70;;;11.10;35.70;;;;;;5091036;28;19991;-67
2021/03/17 12:12:44;;;;;;;;;;;10.90;36.60;;;;;;5090041;28;20032;-67
2021/03/17 12:15:13;;;;;;;9.13;4.65;;;11.00;35.50;;;;;;5090962;28;19908;-67
2021/03/17 12:17:39;;;;;;;12.27;6.50;;;11.00;35.50;;;;;;5090998;28;20024;-67
2021/03/17 12:20:05;;;;;;;;;;;11.00;35.50;;;;;;5091276;28;20161;-68
2021/03/17 12:22:31;;;;;;;7.88;4.85;;;11.00;35.00;;;;;;5090899;28;19908;-67
2021/03/17 12:24:57;;;;;;;;;;;10.90;34.80;;;;;;5091264;28;20488;-66
2021/03/17 12:27:22;;;;;;;9.30;4.47;;;11.00;34.80;;;;;;5090860;28;19912;-67
2021/03/17 12:29:48;;;;;;;;;;;10.90;33.90;;;;;;5091237;28;20028;-67
2021/03/17 12:32:14;;;;;;;7.80;4.65;;;11.00;34.50;;;;;;5090732;28;19947;-67
2021/03/17 12:34:40;;;;;;;30.67;14.00;;;10.80;34.60;;;;;;5090670;28;20028;-67
2021/03/17 12:37:05;;;;;;;;;;;10.90;35.20;;;;;;5089511;28;20548;-67
2021/03/17 12:39:31;;;;;;;9.75;4.93;;;11.10;34.90;;;;;;5090310;28;19920;-67
2021/03/17 12:41:57;;;;;;;5.15;3.20;;;11.10;34.20;;;;;;5090367;28;20039;-68
2021/03/17 12:44:23;;;;;;;6.72;3.60;;;11.00;33.70;;;;;;5090356;28;20113;-67
2021/03/17 12:46:49;;;;;;;;;;;10.90;34.20;;;;;;5090952;28;20491;-68
2021/03/17 12:49:15;;;;;;;6.80;4.00;;;11.10;34.40;;;;;;5090203;28;19939;-68
2021/03/17 12:51:40;;;;;;;6.85;4.25;;;10.90;33.80;;;;;;5090220;28;20500;-67
2021/03/17 12:54:06;;;;;;;;;;;11.00;33.70;;;;;;5090691;28;20020;-67
2021/03/17 12:56:33;;;;;;;7.90;4.60;;;11.10;33.60;;;;;;5090190;28;19904;-67
2021/03/17 12:59:01;;;;;;;6.90;3.65;;;11.20;33.50;;;;;;5090512;28;20070;-68
2021/03/17 13:01:27;;;;;;;6.53;4.20;;;11.20;33.20;;;;;;5089680;28;20032;-66
2021/03/17 13:03:52;;;;;;;;;;;11.30;34.00;;;;;;5089188;28;20028;-66
2021/03/17 13:06:18;;;;;;;6.05;3.65;;;11.30;33.50;;;;;;5090165;28;19908;-68
2021/03/17 13:08:44;;;;;;;7.68;4.38;;;11.30;33.50;;;;;;5090051;28;20186;-67
2021/03/17 13:11:09;;;;;;;;;;;11.30;33.50;;;;;;5090208;28;20496;-67
2021/03/17 13:13:35;;;;;;;7.00;4.10;;;11.30;33.80;;;;;;5089987;28;19912;-67
2021/03/17 13:16:00;;;;;;;;;;;11.30;33.10;;;;;;5090194;28;20031;-67
2021/03/17 13:18:26;;;;;;;49.88;21.73;;;11.50;33.40;;;;;;5089894;28;20459;-68